Time;durP1;ratioP1;P1;durP2;ratioP2;P2;SDS_P1;SDS_P2;PMS_P1;PMS_P2;Temp;Humidity;BMP_temperature;BMP_pressure;BME280_temperature;BME280_humidity;BME280_pressure;Samples;Min_cycle;Max_cycle;Signal;HPM_P1;HPM_P2
2021/09/20 00:04:40;;;;;;;6.57;4.18;;;12.60;99.90;;;;;;12470939;28;20440;-39
2021/09/20 00:10:42;;;;;;;12.07;4.25;;;12.70;99.90;;;;;;12468838;28;20045;-39
2021/09/20 00:16:44;;;;;;;6.68;4.05;;;12.60;99.90;;;;;;12471621;28;20171;-40
2021/09/20 00:22:46;;;;;;;12.10;4.10;;;12.60;99.90;;;;;;12469498;28;20062;-39
2021/09/20 00:28:47;;;;;;;9.27;4.50;;;12.60;99.90;;;;;;12482075;28;20053;-39
2021/09/20 00:34:50;;;;;;;7.75;4.32;;;12.50;99.90;;;;;;12477853;28;20099;-39
2021/09/20 00:40:52;;;;;;;5.93;4.22;;;12.60;99.90;;;;;;12476949;28;20124;-37
2021/09/20 00:46:54;;;;;;;9.05;4.32;;;12.60;99.90;;;;;;12479852;28;20054;-38
2021/09/20 00:52:56;;;;;;;8.75;4.22;;;12.50;99.90;;;;;;12478609;28;20096;-35
2021/09/20 00:58:58;;;;;;;6.57;4.25;;;12.50;99.90;;;;;;12477515;28;20045;-38
2021/09/20 01:05:00;;;;;;;6.20;4.07;;;12.40;99.90;;;;;;12476363;28;20046;-35
2021/09/20 01:11:02;;;;;;;7.45;4.38;;;12.20;99.90;;;;;;12478826;28;20053;-40
2021/09/20 01:17:05;;;;;;;8.00;4.38;;;12.20;99.90;;;;;;12476052;28;20220;-39
2021/09/20 01:23:07;;;;;;;9.10;4.63;;;12.20;99.90;;;;;;12473574;28;20041;-36
2021/09/20 01:29:09;;;;;;;7.35;4.72;;;12.30;99.90;;;;;;12477734;28;20049;-40
2021/09/20 01:35:11;;;;;;;6.30;4.35;;;12.40;99.90;;;;;;12473513;28;20045;-35
2021/09/20 01:41:12;;;;;;;8.07;4.80;;;12.30;99.90;;;;;;12475824;28;20084;-35
2021/09/20 01:47:14;;;;;;;8.05;4.13;;;12.40;99.90;;;;;;12476733;28;20057;-39
2021/09/20 01:53:16;;;;;;;8.70;4.78;;;12.20;99.90;;;;;;12475789;28;20148;-39
2021/09/20 01:59:18;;;;;;;6.90;4.70;;;12.20;99.90;;;;;;12474444;28;20069;-40
2021/09/20 02:05:20;;;;;;;7.15;4.65;;;12.20;99.90;;;;;;12478272;28;20049;-39
2021/09/20 02:11:23;;;;;;;10.27;4.57;;;12.30;99.90;;;;;;12475833;28;20041;-40
2021/09/20 02:17:25;;;;;;;6.75;4.30;;;12.30;99.90;;;;;;12475085;28;20049;-40
2021/09/20 02:23:26;;;;;;;8.02;4.78;;;12.20;99.90;;;;;;12471577;28;20095;-39
2021/09/20 02:29:28;;;;;;;7.22;4.72;;;12.10;99.90;;;;;;12475666;28;20516;-39
2021/09/20 02:35:30;;;;;;;7.28;4.88;;;12.10;99.90;;;;;;12470242;28;20472;-39
2021/09/20 02:41:32;;;;;;;10.73;5.68;;;12.10;99.90;;;;;;12475795;28;20058;-36
2021/09/20 02:47:35;;;;;;;7.65;4.75;;;12.10;99.90;;;;;;12473319;28;20095;-39
2021/09/20 02:53:38;;;;;;;8.90;4.63;;;12.10;99.90;;;;;;12468961;28;20250;-39
2021/09/20 02:59:40;;;;;;;10.55;5.43;;;12.10;99.90;;;;;;12470804;28;20358;-39
2021/09/20 03:05:41;;;;;;;8.73;4.80;;;12.10;99.90;;;;;;12471583;28;20049;-36
2021/09/20 03:11:43;;;;;;;7.55;5.13;;;12.10;99.90;;;;;;12473345;28;20049;-35
2021/09/20 03:17:45;;;;;;;11.30;5.53;;;12.00;99.90;;;;;;12473895;28;20087;-38
2021/09/20 03:23:47;;;;;;;9.20;5.25;;;12.00;99.90;;;;;;12472923;28;20053;-40
2021/09/20 03:29:49;;;;;;;8.70;5.00;;;12.00;99.90;;;;;;12473460;28;20084;-39
2021/09/20 03:35:51;;;;;;;7.80;5.47;;;12.00;99.90;;;;;;12471384;28;20099;-42
2021/09/20 03:41:52;;;;;;;10.65;4.88;;;12.10;99.90;;;;;;12473508;28;20054;-38
2021/09/20 03:47:54;;;;;;;8.00;5.05;;;12.20;99.90;;;;;;12470437;28;20050;-41
2021/09/20 03:53:56;;;;;;;7.47;5.53;;;12.10;99.90;;;;;;12470147;28;20374;-39
2021/09/20 03:59:58;;;;;;;8.95;5.28;;;12.20;99.90;;;;;;12470913;28;20057;-35
2021/09/20 04:05:59;;;;;;;10.85;5.57;;;12.10;99.90;;;;;;12482998;28;20132;-39
2021/09/20 04:12:01;;;;;;;8.55;4.95;;;12.10;99.90;;;;;;12481477;28;20544;-35
2021/09/20 04:18:07;;;;;;;7.03;5.10;;;12.00;99.90;;;;;;12479084;28;21021;-35
2021/09/20 04:24:11;;;;;;;9.65;5.03;;;12.10;99.90;;;;;;12480318;28;20057;-41
2021/09/20 04:30:13;;;;;;;7.97;5.13;;;12.00;99.90;;;;;;12475503;28;20049;-38
2021/09/20 04:36:15;;;;;;;9.02;5.30;;;12.00;99.90;;;;;;12481837;28;20049;-38
2021/09/20 04:42:19;;;;;;;9.98;5.10;;;12.00;99.90;;;;;;12478721;28;20095;-35
2021/09/20 04:48:21;;;;;;;7.13;4.70;;;12.00;99.90;;;;;;12480522;28;20083;-39
2021/09/20 04:54:23;;;;;;;11.65;5.10;;;12.00;99.90;;;;;;12482624;28;20045;-35
2021/09/20 05:00:25;;;;;;;9.57;5.10;;;11.90;99.90;;;;;;12479879;28;20079;-36
2021/09/20 05:06:27;;;;;;;9.23;5.32;;;11.80;99.90;;;;;;12477709;28;20050;-40
2021/09/20 05:12:29;;;;;;;7.60;5.30;;;11.70;99.90;;;;;;12474441;28;20132;-40
2021/09/20 05:18:31;;;;;;;9.07;5.50;;;11.70;99.90;;;;;;12477005;28;20507;-35
2021/09/20 05:24:33;;;;;;;8.30;5.15;;;11.70;99.90;;;;;;12476317;28;20053;-35
2021/09/20 05:30:35;;;;;;;10.23;4.78;;;11.70;99.90;;;;;;12465029;28;20073;-36
2021/09/20 05:36:37;;;;;;;7.35;5.15;;;11.70;99.90;;;;;;12476135;28;20078;-39
2021/09/20 05:42:40;;;;;;;9.40;5.43;;;11.70;99.90;;;;;;12476354;28;20065;-38
2021/09/20 05:48:42;;;;;;;8.80;4.63;;;11.80;99.90;;;;;;12480426;28;20069;-39
2021/09/20 05:54:50;;;;;;;7.38;4.40;;;11.80;99.90;;;;;;12477288;28;20054;-38
2021/09/20 06:00:54;;;;;;;7.60;4.22;;;11.70;99.90;;;;;;12475375;28;20522;-38
2021/09/20 06:06:57;;;;;;;8.90;4.50;;;11.70;99.90;;;;;;12477879;28;20057;-39
2021/09/20 06:12:59;;;;;;;7.78;3.90;;;11.70;99.90;;;;;;12476303;28;20049;-38
2021/09/20 06:19:02;;;;;;;10.77;3.80;;;11.80;99.90;;;;;;12475893;28;20568;-35
2021/09/20 06:25:06;;;;;;;8.15;3.70;;;11.90;99.90;;;;;;12477784;28;20128;-41
2021/09/20 06:31:08;;;;;;;6.47;3.47;;;11.90;99.90;;;;;;12476605;28;20092;-39
2021/09/20 06:37:11;;;;;;;7.88;3.03;;;11.90;99.90;;;;;;12477256;28;20103;-39
2021/09/20 06:43:15;;;;;;;5.93;3.22;;;12.00;99.90;;;;;;12477086;28;20128;-35
2021/09/20 06:49:17;;;;;;;4.47;2.53;;;12.00;99.90;;;;;;12473573;28;20067;-35
2021/09/20 06:55:19;;;;;;;5.97;3.20;;;12.10;99.90;;;;;;12476949;28;20056;-37
2021/09/20 07:01:21;;;;;;;5.25;2.55;;;12.20;99.90;;;;;;12474297;28;20110;-39
2021/09/20 07:07:23;;;;;;;4.57;2.80;;;12.20;99.90;;;;;;12473347;28;20054;-37
2021/09/20 07:13:25;;;;;;;5.82;2.45;;;12.30;99.90;;;;;;12474204;28;20049;-37
2021/09/20 07:19:27;;;;;;;4.72;2.25;;;12.40;99.90;;;;;;12476870;28;20061;-35
2021/09/20 07:25:30;;;;;;;6.50;2.67;;;12.50;99.90;;;;;;12473302;28;20128;-38
2021/09/20 07:31:35;;;;;;;4.75;2.28;;;12.60;99.90;;;;;;12475361;28;20054;-39
2021/09/20 07:37:38;;;;;;;3.63;2.17;;;12.70;99.90;;;;;;12500359;28;20697;-40
2021/09/20 07:43:45;;;;;;;5.30;2.20;;;12.70;99.90;;;;;;12485718;28;20680;-35
2021/09/20 07:49:53;;;;;;;5.30;2.03;;;12.60;99.90;;;;;;12488803;28;20042;-41
2021/09/20 07:55:59;;;;;;;6.88;1.90;;;12.60;99.90;;;;;;12479097;28;20045;-35
2021/09/20 08:02:02;;;;;;;3.85;1.77;;;12.60;99.90;;;;;;12487025;28;20172;-38
2021/09/20 08:08:05;;;;;;;4.38;1.73;;;12.60;99.90;;;;;;12484127;28;20372;-36
2021/09/20 08:14:07;;;;;;;4.25;1.60;;;12.70;99.90;;;;;;12483343;28;20085;-35
2021/09/20 08:20:12;;;;;;;3.17;1.52;;;12.70;99.90;;;;;;12483314;28;20053;-38
2021/09/20 08:26:19;;;;;;;4.40;1.85;;;12.80;99.90;;;;;;12483037;28;20084;-35
2021/09/20 08:32:25;;;;;;;4.57;1.60;;;12.80;99.90;;;;;;12484169;28;20050;-39
2021/09/20 08:38:30;;;;;;;5.00;1.40;;;13.10;99.90;;;;;;12482177;28;20060;-40
2021/09/20 08:44:33;;;;;;;4.20;1.65;;;13.10;99.90;;;;;;12480740;28;20483;-35
2021/09/20 08:50:37;;;;;;;3.47;1.40;;;13.20;99.90;;;;;;12482572;28;20059;-39
2021/09/20 08:56:40;;;;;;;4.07;1.40;;;13.20;99.90;;;;;;12484530;28;20056;-39
2021/09/20 09:02:44;;;;;;;2.47;1.13;;;13.40;99.90;;;;;;12480554;28;20145;-38
2021/09/20 09:08:47;;;;;;;5.40;1.40;;;13.50;99.90;;;;;;12480492;28;20102;-41
2021/09/20 09:15:01;;;;;;;4.30;1.15;;;13.60;99.90;;;;;;12479708;28;20092;-39
2021/09/20 09:21:21;;;;;;;2.55;1.17;;;13.70;99.90;;;;;;12478967;28;20057;-35
2021/09/20 09:27:24;;;;;;;4.82;1.13;;;13.60;99.90;;;;;;12482691;28;20050;-35
2021/09/20 09:33:36;;;;;;;3.40;1.67;;;13.80;99.90;;;;;;12483945;28;20058;-35
2021/09/20 09:39:44;;;;;;;2.70;0.90;;;14.00;99.90;;;;;;12481833;28;20418;-39
2021/09/20 09:45:46;;;;;;;2.03;1.00;;;13.90;99.90;;;;;;12480711;28;20574;-38
2021/09/20 09:52:09;;;;;;;2.13;0.88;;;14.00;99.90;;;;;;12476335;28;20052;-39
2021/09/20 09:58:12;;;;;;;1.75;0.77;;;14.10;99.90;;;;;;12477976;28;20149;-35
2021/09/20 10:04:20;;;;;;;2.35;0.80;;;14.00;99.90;;;;;;12472449;28;20467;-38
2021/09/20 10:10:24;;;;;;;3.67;1.10;;;14.00;99.90;;;;;;12477197;28;20529;-35
2021/09/20 10:16:28;;;;;;;2.88;1.00;;;14.00;99.90;;;;;;12477082;28;20485;-39
2021/09/20 10:22:31;;;;;;;2.50;1.00;;;14.00;99.90;;;;;;12474795;28;20046;-39
2021/09/20 10:28:33;;;;;;;2.92;1.00;;;13.60;99.90;;;;;;12476824;28;20054;-35
2021/09/20 10:34:36;;;;;;;1.83;0.90;;;13.40;99.90;;;;;;12473390;28;20112;-35
2021/09/20 10:40:38;;;;;;;3.33;1.20;;;13.40;99.90;;;;;;12474682;28;20053;-35
2021/09/20 10:46:42;;;;;;;2.05;0.90;;;13.30;99.90;;;;;;12474506;28;20057;-39
2021/09/20 10:53:29;;;;;;;2.75;1.25;;;13.30;99.90;;;;;;12476232;28;20051;-39
2021/09/20 10:59:31;;;;;;;3.78;1.13;;;13.40;99.90;;;;;;12477650;28;20518;-39
2021/09/20 11:05:33;;;;;;;3.47;1.10;;;13.40;99.90;;;;;;12473277;28;20166;-39
2021/09/20 11:17:47;;;;;;;3.88;1.30;;;13.40;99.90;;;;;;12476987;28;20425;-40
2021/09/20 11:23:51;;;;;;;3.50;1.10;;;13.50;99.90;;;;;;12470923;28;20057;-38
2021/09/20 11:30:00;;;;;;;3.00;1.27;;;13.40;99.90;;;;;;12478098;28;20053;-38
2021/09/20 11:36:13;;;;;;;5.35;1.55;;;13.40;99.90;;;;;;12463572;28;20049;-35
2021/09/20 11:42:17;;;;;;;3.67;1.45;;;13.30;99.90;;;;;;12475433;28;20053;-35
2021/09/20 11:48:21;;;;;;;4.32;1.20;;;13.40;99.90;;;;;;12476844;28;20103;-39
2021/09/20 11:54:36;;;;;;;2.28;1.20;;;13.50;99.90;;;;;;12476876;28;20456;-38
2021/09/20 12:00:45;;;;;;;2.58;1.38;;;13.40;99.90;;;;;;12469843;28;20053;-35
2021/09/20 12:06:49;;;;;;;3.33;1.40;;;13.50;99.90;;;;;;12473967;28;20130;-35
2021/09/20 12:12:55;;;;;;;3.65;1.50;;;13.70;99.90;;;;;;12450787;28;20577;-34
2021/09/20 12:18:58;;;;;;;3.95;1.42;;;13.80;99.90;;;;;;12424686;28;20061;-38
2021/09/20 12:25:17;;;;;;;4.65;1.50;;;13.90;99.90;;;;;;12433388;28;20054;-38
2021/09/20 12:31:41;;;;;;;3.85;1.70;;;13.80;99.90;;;;;;12432200;28;20046;-34
2021/09/20 12:37:43;;;;;;;5.80;1.60;;;13.80;99.90;;;;;;12429236;28;20056;-35
2021/09/20 12:43:50;;;;;;;3.80;1.65;;;13.90;99.90;;;;;;12433622;28;20047;-34
2021/09/20 12:49:58;;;;;;;2.83;1.52;;;14.00;99.90;;;;;;12434943;28;20046;-35
2021/09/20 12:56:00;;;;;;;3.20;1.60;;;14.20;99.90;;;;;;12429834;28;20397;-34
2021/09/20 13:02:10;;;;;;;4.72;1.20;;;14.00;99.90;;;;;;12429097;28;20361;-35
2021/09/20 13:08:14;;;;;;;3.15;1.58;;;13.90;99.90;;;;;;12435667;28;20041;-35
2021/09/20 13:14:25;;;;;;;2.60;1.27;;;13.90;99.90;;;;;;12427771;28;20050;-41
2021/09/20 13:20:35;;;;;;;4.03;1.75;;;13.90;99.90;;;;;;12431684;28;20458;-34
2021/09/20 13:26:40;;;;;;;3.38;1.52;;;13.90;99.90;;;;;;12433113;28;20054;-34
2021/09/20 13:32:44;;;;;;;3.10;1.42;;;13.90;99.90;;;;;;12429137;28;20054;-34
2021/09/20 13:38:46;;;;;;;6.72;3.50;;;13.90;99.90;;;;;;12424008;28;21066;-35
2021/09/20 13:44:48;;;;;;;5.22;2.45;;;13.60;99.90;;;;;;12419257;28;20077;-39
2021/09/20 13:50:51;;;;;;;3.03;1.65;;;13.70;99.90;;;;;;12421802;28;20451;-35
2021/09/20 13:56:54;;;;;;;4.55;1.90;;;13.70;99.90;;;;;;12420989;28;20581;-35
2021/09/20 14:02:56;;;;;;;3.08;1.58;;;13.70;99.90;;;;;;12418782;28;20073;-38
2021/09/20 14:08:58;;;;;;;4.45;1.67;;;13.80;99.90;;;;;;12418508;28;20050;-34
2021/09/20 14:15:05;;;;;;;3.47;1.50;;;13.80;99.90;;;;;;12416387;28;20081;-34
2021/09/20 14:21:06;;;;;;;3.33;1.60;;;13.80;99.90;;;;;;12414284;28;20084;-39
2021/09/20 14:27:09;;;;;;;3.67;1.42;;;13.80;99.90;;;;;;12415125;28;20496;-38
2021/09/20 14:33:11;;;;;;;2.25;1.30;;;13.80;99.90;;;;;;12420416;28;20054;-35
2021/09/20 14:39:13;;;;;;;3.25;1.40;;;13.80;99.90;;;;;;12414011;28;20482;-34
2021/09/20 14:45:17;;;;;;;3.92;1.90;;;13.70;99.90;;;;;;12415979;28;20137;-34
2021/09/20 14:51:20;;;;;;;3.95;1.42;;;13.50;99.90;;;;;;12424274;28;20107;-38
2021/09/20 14:57:25;;;;;;;3.40;1.40;;;13.50;99.90;;;;;;12425656;28;20083;-38
2021/09/20 15:03:27;;;;;;;4.18;1.45;;;13.70;99.90;;;;;;12427558;28;20053;-38
2021/09/20 15:09:30;;;;;;;3.85;1.60;;;13.70;99.90;;;;;;12421156;28;20053;-38
2021/09/20 15:15:32;;;;;;;5.72;1.77;;;13.70;99.90;;;;;;12425043;28;20054;-37
2021/09/20 15:21:35;;;;;;;4.22;1.58;;;13.60;99.90;;;;;;12425264;28;20092;-39
2021/09/20 15:27:38;;;;;;;3.40;1.40;;;13.70;99.90;;;;;;12421348;28;20050;-34
2021/09/20 15:33:41;;;;;;;3.00;1.40;;;13.70;99.90;;;;;;12425119;28;20061;-35
2021/09/20 15:39:43;;;;;;;7.00;1.70;;;14.00;99.90;;;;;;12417130;28;20446;-35
2021/09/20 15:45:47;;;;;;;4.13;1.90;;;13.80;99.90;;;;;;12421740;28;20043;-37
2021/09/20 15:51:49;;;;;;;3.25;1.50;;;13.80;99.90;;;;;;12423392;28;20049;-35
2021/09/20 15:57:51;;;;;;;3.67;1.65;;;13.70;99.90;;;;;;12432695;28;20057;-36
2021/09/20 16:03:53;;;;;;;5.20;1.90;;;13.70;99.90;;;;;;12432556;28;20092;-39
2021/09/20 16:09:55;;;;;;;2.70;1.70;;;13.70;99.90;;;;;;12429041;28;20046;-36
2021/09/20 16:15:57;;;;;;;8.57;2.20;;;13.80;99.90;;;;;;12431374;28;20050;-39
2021/09/20 16:22:01;;;;;;;5.38;2.10;;;13.70;99.90;;;;;;12431729;28;20046;-35
2021/09/20 16:28:03;;;;;;;3.47;1.90;;;13.50;99.90;;;;;;12429942;28;20054;-35
2021/09/20 16:34:05;;;;;;;4.28;1.80;;;13.40;99.90;;;;;;12479270;28;20100;-35
2021/09/20 16:40:10;;;;;;;5.30;2.03;;;13.40;99.90;;;;;;12479728;28;20687;-35
2021/09/20 16:46:12;;;;;;;5.88;2.03;;;13.40;99.90;;;;;;12520946;28;20057;-39
2021/09/20 16:52:14;;;;;;;3.70;1.80;;;13.40;99.90;;;;;;12513655;28;20048;-38
2021/09/20 16:58:16;;;;;;;4.60;2.10;;;13.30;99.90;;;;;;12478549;28;20038;-39
2021/09/20 17:04:18;;;;;;;5.15;2.00;;;13.20;99.90;;;;;;12510777;28;20052;-38
2021/09/20 17:10:20;;;;;;;4.82;1.70;;;13.30;99.90;;;;;;12524291;28;20125;-38
2021/09/20 17:16:22;;;;;;;4.00;1.67;;;13.30;99.90;;;;;;12527199;28;20583;-38
2021/09/20 17:22:24;;;;;;;4.85;2.05;;;13.30;99.90;;;;;;12518517;28;20071;-35
2021/09/20 17:28:26;;;;;;;6.07;1.88;;;13.20;99.90;;;;;;12523507;28;20098;-35
2021/09/20 17:34:28;;;;;;;3.42;2.03;;;13.10;99.90;;;;;;12523556;28;20049;-37
2021/09/20 17:40:32;;;;;;;4.22;1.95;;;13.10;99.90;;;;;;12521005;28;20521;-34
2021/09/20 17:46:34;;;;;;;5.88;2.33;;;13.10;99.90;;;;;;12521972;28;20053;-34
2021/09/20 17:52:36;;;;;;;5.13;1.90;;;13.10;99.90;;;;;;12524455;28;20053;-35
2021/09/20 17:58:38;;;;;;;4.35;2.17;;;13.00;99.90;;;;;;12522276;28;20090;-40
2021/09/20 18:04:40;;;;;;;3.97;2.00;;;12.90;99.90;;;;;;12523922;28;20549;-36
2021/09/20 18:10:42;;;;;;;3.40;1.92;;;12.90;99.90;;;;;;12519876;28;20120;-41
2021/09/20 18:16:44;;;;;;;4.38;1.88;;;12.80;99.90;;;;;;12519723;28;23589;-39
2021/09/20 18:22:50;;;;;;;5.20;2.05;;;13.00;99.90;;;;;;12499022;28;20135;-39
2021/09/20 18:28:53;;;;;;;5.10;2.20;;;13.00;99.90;;;;;;12470345;28;20053;-35
2021/09/20 18:34:55;;;;;;;6.00;2.30;;;12.90;99.90;;;;;;12470970;28;20053;-35
2021/09/20 18:40:57;;;;;;;4.47;2.97;;;12.90;99.90;;;;;;12470591;28;20053;-39
2021/09/20 18:46:59;;;;;;;4.60;2.67;;;12.90;99.90;;;;;;12468177;28;20119;-35
2021/09/20 18:53:03;;;;;;;5.53;3.10;;;12.90;99.90;;;;;;12492386;28;20048;-35
2021/09/20 18:59:05;;;;;;;6.10;3.00;;;12.90;99.90;;;;;;12517347;28;20636;-39
2021/09/20 19:05:08;;;;;;;5.00;3.22;;;12.90;99.90;;;;;;12480946;28;20174;-39
2021/09/20 19:11:10;;;;;;;6.25;3.03;;;13.00;99.90;;;;;;12482896;28;20053;-35
2021/09/20 19:17:12;;;;;;;3.85;2.53;;;12.90;99.90;;;;;;12519689;28;20102;-39
2021/09/20 19:23:14;;;;;;;4.13;2.40;;;12.80;99.90;;;;;;12517743;28;20175;-35
2021/09/20 19:29:16;;;;;;;5.88;2.85;;;12.70;99.90;;;;;;12518332;28;20470;-39
2021/09/20 19:35:18;;;;;;;5.28;3.00;;;12.80;99.90;;;;;;12518781;28;20071;-39
2021/09/20 19:41:22;;;;;;;3.80;2.53;;;12.70;99.90;;;;;;12517050;28;20073;-35
2021/09/20 19:47:24;;;;;;;;;;;12.60;99.90;;;;;;12518545;28;20638;-37
2021/09/20 19:53:26;;;;;;;5.55;3.10;;;12.70;99.90;;;;;;12520909;28;19924;-39
2021/09/20 19:59:27;;;;;;;6.15;3.13;;;12.60;99.90;;;;;;12516784;28;20127;-35
2021/09/20 20:05:29;;;;;;;6.25;3.13;;;12.50;99.90;;;;;;12518282;28;20098;-38
2021/09/20 20:11:32;;;;;;;7.70;3.03;;;12.50;99.90;;;;;;12519745;28;20091;-39
2021/09/20 20:17:34;;;;;;;8.23;2.83;;;12.50;99.90;;;;;;12518103;28;20786;-35
2021/09/20 20:23:42;;;;;;;4.55;3.25;;;12.60;99.90;;;;;;12521505;28;20130;-35
2021/09/20 20:29:43;;;;;;;7.45;2.92;;;12.50;99.90;;;;;;12522374;28;20080;-39
2021/09/20 20:35:45;;;;;;;8.10;3.30;;;12.40;99.90;;;;;;12516567;28;20105;-39
2021/09/20 20:41:47;;;;;;;7.10;3.38;;;12.50;99.90;;;;;;12522282;28;20071;-39
2021/09/20 20:47:49;;;;;;;8.60;3.58;;;12.40;99.90;;;;;;12528032;28;20909;-38
2021/09/20 20:53:51;;;;;;;5.25;3.10;;;12.40;99.90;;;;;;12529189;28;20064;-38
2021/09/20 20:59:53;;;;;;;6.80;3.33;;;12.50;99.90;;;;;;12529569;28;20060;-35
2021/09/20 21:05:55;;;;;;;6.10;3.22;;;12.50;99.90;;;;;;12525430;28;20083;-35
2021/09/20 21:11:57;;;;;;;10.55;3.38;;;12.50;99.90;;;;;;12524571;28;20352;-39
2021/09/20 21:17:59;;;;;;;6.72;3.58;;;12.40;99.90;;;;;;12526708;28;20056;-35
2021/09/20 21:24:06;;;;;;;5.13;3.45;;;12.50;99.90;;;;;;12530580;28;20049;-41
2021/09/20 21:30:09;;;;;;;7.75;3.30;;;12.40;99.90;;;;;;12525719;28;20086;-38
2021/09/20 21:36:12;;;;;;;5.10;3.20;;;12.40;99.90;;;;;;12523010;28;20110;-35
2021/09/20 21:42:14;;;;;;;5.35;3.50;;;12.40;99.90;;;;;;12526754;28;20053;-35
2021/09/20 21:48:16;;;;;;;5.43;3.42;;;12.30;99.90;;;;;;12525742;28;20044;-39
2021/09/20 21:54:17;;;;;;;6.60;3.70;;;12.40;99.90;;;;;;12524829;28;20045;-35
2021/09/20 22:00:20;;;;;;;6.28;3.40;;;12.30;99.90;;;;;;12514446;28;20083;-39
2021/09/20 22:06:22;;;;;;;7.85;3.63;;;12.30;99.90;;;;;;12522667;28;20049;-40
2021/09/20 22:12:24;;;;;;;5.93;3.72;;;12.30;99.90;;;;;;12521689;28;20124;-35
2021/09/20 22:18:27;;;;;;;5.72;3.95;;;12.20;99.90;;;;;;12523196;28;20626;-35
2021/09/20 22:24:29;;;;;;;5.82;3.53;;;12.10;99.90;;;;;;12523082;28;20049;-35
2021/09/20 22:30:31;;;;;;;7.45;3.97;;;12.10;99.90;;;;;;12517693;28;20171;-35
2021/09/20 22:36:32;;;;;;;6.05;3.63;;;12.40;99.90;;;;;;12525463;28;20550;-41
2021/09/20 22:42:34;;;;;;;8.18;3.58;;;12.40;99.90;;;;;;12520059;28;20102;-35
2021/09/20 22:48:37;;;;;;;6.10;3.65;;;12.40;99.90;;;;;;12518945;28;20434;-35
2021/09/20 22:54:39;;;;;;;6.20;3.45;;;12.40;99.90;;;;;;12521053;28;20555;-40
2021/09/20 23:00:41;;;;;;;5.30;3.58;;;12.40;99.90;;;;;;12512792;28;20111;-35
2021/09/20 23:06:43;;;;;;;8.35;3.78;;;12.40;99.90;;;;;;12468711;28;20111;-39
2021/09/20 23:12:45;;;;;;;7.55;3.90;;;12.40;99.90;;;;;;12491638;28;20052;-38
2021/09/20 23:18:46;;;;;;;7.53;3.85;;;12.30;99.90;;;;;;12521802;28;20053;-39
2021/09/20 23:24:48;;;;;;;8.27;3.75;;;12.30;99.90;;;;;;12478143;28;20106;-38
2021/09/20 23:45:42;;;;;;;6.60;3.72;;;12.20;99.90;;;;;;12471381;28;20374;-38
2021/09/20 23:51:44;;;;;;;7.45;3.55;;;12.20;99.90;;;;;;12472900;28;20911;-35
2021/09/20 23:57:46;;;;;;;8.23;4.07;;;12.10;99.90;;;;;;12473246;28;20096;-35
